Time;durP1;ratioP1;P1;durP2;ratioP2;P2;SDS_P1;SDS_P2;PMS_P1;PMS_P2;Temp;Humidity;BMP_temperature;BMP_pressure;BME280_temperature;BME280_humidity;BME280_pressure;Samples;Min_cycle;Max_cycle;Signal;HPM_P1;HPM_P2
2021/04/03 00:00:26;;;;;;;18.45;6.72;;;6.00;99.90;;;;;;4958445;28;20042;-59
2021/04/03 00:02:56;;;;;;;15.15;5.25;;;6.00;99.90;;;;;;4950012;28;20042;-59
2021/04/03 00:05:23;;;;;;;22.33;5.07;;;6.00;99.90;;;;;;4948487;28;20043;-56
2021/04/03 00:07:49;;;;;;;18.15;6.05;;;6.10;99.90;;;;;;4963332;28;20082;-57
2021/04/03 00:10:19;;;;;;;22.08;6.80;;;6.10;99.90;;;;;;4955117;28;20023;-56
2021/04/03 00:12:45;;;;;;;26.98;6.45;;;6.10;99.90;;;;;;4955173;28;20062;-54
2021/04/03 00:15:12;;;;;;;17.35;5.75;;;6.00;99.90;;;;;;4969258;28;20089;-56
2021/04/03 00:17:37;;;;;;;16.83;5.35;;;6.00;99.90;;;;;;4950786;28;20607;-57
2021/04/03 00:20:05;;;;;;;18.08;5.80;;;6.10;99.90;;;;;;4960232;28;20133;-55
2021/04/03 00:22:31;;;;;;;18.67;5.70;;;6.00;99.90;;;;;;4933925;28;20104;-56
2021/04/03 00:24:56;;;;;;;22.83;6.32;;;6.00;99.90;;;;;;4953720;28;20556;-56
2021/04/03 00:27:22;;;;;;;15.57;5.93;;;6.00;99.90;;;;;;4962997;28;20528;-55
2021/04/03 00:29:47;;;;;;;23.05;6.40;;;6.00;99.90;;;;;;4965423;28;20023;-55
2021/04/03 00:32:13;;;;;;;10.77;5.03;;;6.00;99.90;;;;;;4962902;28;20030;-56
2021/04/03 00:34:38;;;;;;;16.63;5.00;;;6.00;99.90;;;;;;4951025;28;20046;-56
2021/04/03 00:37:04;;;;;;;14.48;5.28;;;6.00;99.90;;;;;;4963074;28;20038;-56
2021/04/03 00:39:30;;;;;;;16.25;5.45;;;6.00;99.90;;;;;;4966351;28;20099;-55
2021/04/03 00:41:55;;;;;;;16.60;5.85;;;6.00;99.90;;;;;;4968142;28;20031;-56
2021/04/03 00:44:21;;;;;;;20.58;7.15;;;6.00;99.90;;;;;;4972543;28;20031;-54
2021/04/03 00:46:46;;;;;;;23.98;5.47;;;6.00;99.90;;;;;;4967336;28;20049;-54
2021/04/03 00:49:12;;;;;;;17.35;4.80;;;6.00;99.90;;;;;;4973729;28;20106;-57
2021/04/03 00:51:40;;;;;;;21.63;4.53;;;6.00;99.90;;;;;;4933391;28;20082;-56
2021/04/03 00:54:07;;;;;;;22.20;4.80;;;6.00;99.90;;;;;;4956184;28;20061;-54
2021/04/03 00:56:33;;;;;;;16.48;4.45;;;6.00;99.90;;;;;;4971817;28;20090;-57
2021/04/03 00:58:58;;;;;;;23.52;4.68;;;5.90;99.90;;;;;;4973938;28;20070;-58
2021/04/03 01:01:24;;;;;;;22.63;4.20;;;5.80;99.90;;;;;;4972931;28;20030;-56
2021/04/03 01:03:50;;;;;;;15.73;3.83;;;5.80;99.90;;;;;;4966012;28;20089;-56
2021/04/03 01:06:15;;;;;;;19.80;4.93;;;5.80;99.90;;;;;;4973207;28;20027;-58
2021/04/03 01:08:41;;;;;;;15.45;4.63;;;5.80;99.90;;;;;;4973425;28;20058;-55
2021/04/03 01:11:07;;;;;;;22.48;4.57;;;5.80;99.90;;;;;;4973933;28;20082;-56
2021/04/03 01:13:48;;;;;;;23.85;5.38;;;5.80;99.90;;;;;;4974105;28;20031;-56
2021/04/03 01:16:41;;;;;;;16.10;4.72;;;5.80;99.90;;;;;;4971308;28;20081;-56
2021/04/03 01:19:39;;;;;;;30.63;6.35;;;5.70;99.90;;;;;;4970379;28;20032;-53
2021/04/03 01:22:29;;;;;;;17.17;5.20;;;5.60;99.90;;;;;;4972123;28;20512;-56
2021/04/03 01:25:35;;;;;;;16.75;4.50;;;5.60;99.90;;;;;;4973386;28;20030;-54
2021/04/03 01:28:07;;;;;;;20.88;5.47;;;5.60;99.90;;;;;;4971681;28;20046;-55
2021/04/03 01:30:34;;;;;;;21.42;5.72;;;5.60;99.90;;;;;;4977414;28;20030;-56
2021/04/03 01:33:06;;;;;;;17.70;5.35;;;5.60;99.90;;;;;;4961972;28;20031;-54
2021/04/03 01:35:38;;;;;;;25.50;6.00;;;5.60;99.90;;;;;;4973631;28;20035;-52
2021/04/03 01:38:15;;;;;;;20.35;5.63;;;5.60;99.90;;;;;;4962052;28;20054;-56
2021/04/03 01:40:41;;;;;;;20.15;5.63;;;5.60;99.90;;;;;;4964720;28;20026;-55
2021/04/03 01:43:14;;;;;;;17.65;4.88;;;5.50;99.90;;;;;;4973020;28;20114;-58
2021/04/03 01:45:42;;;;;;;18.65;6.72;;;5.50;99.90;;;;;;4973532;28;20393;-56
2021/04/03 01:48:10;;;;;;;22.48;5.78;;;5.50;99.90;;;;;;4972163;28;20023;-58
2021/04/03 01:50:38;;;;;;;19.48;5.30;;;5.50;99.90;;;;;;4973239;28;20046;-56
2021/04/03 01:53:04;;;;;;;22.65;5.78;;;5.40;99.90;;;;;;4964449;28;20024;-56
2021/04/03 01:55:32;;;;;;;23.90;5.72;;;5.50;99.90;;;;;;4972936;28;20545;-54
2021/04/03 01:57:59;;;;;;;14.32;4.93;;;5.40;99.90;;;;;;4961071;28;20088;-56
2021/04/03 02:00:28;;;;;;;18.50;5.15;;;5.40;99.90;;;;;;4968719;28;20084;-55
2021/04/03 02:02:54;;;;;;;19.63;5.43;;;5.40;99.90;;;;;;4958092;28;20046;-54
2021/04/03 02:05:21;;;;;;;25.60;6.45;;;5.40;99.90;;;;;;4959620;28;20567;-54
2021/04/03 02:07:48;;;;;;;38.17;7.38;;;5.50;99.90;;;;;;4958515;28;20113;-53
2021/04/03 02:10:16;;;;;;;26.15;8.10;;;5.50;99.90;;;;;;4962133;28;20507;-57
2021/04/03 02:12:44;;;;;;;25.73;8.20;;;5.40;99.90;;;;;;4978118;28;20062;-56
2021/04/03 02:15:12;;;;;;;26.30;7.13;;;5.40;99.90;;;;;;4980554;28;20510;-56
2021/04/03 02:17:39;;;;;;;23.67;8.90;;;5.40;99.90;;;;;;4970260;28;20069;-52
2021/04/03 02:20:10;;;;;;;33.85;10.57;;;5.50;99.90;;;;;;4973282;28;20732;-52
2021/04/03 02:22:36;;;;;;;23.83;9.00;;;5.40;99.90;;;;;;4968246;28;20521;-57
2021/04/03 02:25:10;;;;;;;29.60;8.77;;;5.40;99.90;;;;;;4972640;28;20392;-51
2021/04/03 02:27:36;;;;;;;23.95;9.02;;;5.30;99.90;;;;;;4945882;28;20034;-54
2021/04/03 02:30:15;;;;;;;25.38;9.40;;;5.30;99.90;;;;;;4966133;28;20030;-55
2021/04/03 02:33:01;;;;;;;34.15;10.88;;;5.30;99.90;;;;;;4969464;28;20035;-55
2021/04/03 02:35:29;;;;;;;23.08;7.75;;;5.40;99.90;;;;;;4971318;28;20054;-56
2021/04/03 02:37:58;;;;;;;26.45;7.65;;;5.40;99.90;;;;;;4970816;28;20109;-54
2021/04/03 02:40:27;;;;;;;26.13;7.55;;;5.30;99.90;;;;;;4972851;28;20026;-56
2021/04/03 02:43:03;;;;;;;16.90;7.50;;;5.30;99.90;;;;;;4967038;28;20027;-56
2021/04/03 02:45:33;;;;;;;25.15;8.88;;;5.30;99.90;;;;;;4972696;28;20077;-53
2021/04/03 02:48:03;;;;;;;27.42;7.95;;;5.30;99.90;;;;;;4961421;28;20053;-53
2021/04/03 02:50:34;;;;;;;21.10;6.90;;;5.30;99.90;;;;;;4966410;28;20031;-53
2021/04/03 02:53:02;;;;;;;20.65;6.72;;;5.40;99.90;;;;;;4968603;28;20077;-52
2021/04/03 02:55:30;;;;;;;22.65;6.85;;;5.30;99.90;;;;;;4972138;28;20122;-54
2021/04/03 02:57:58;;;;;;;20.90;6.75;;;5.30;99.90;;;;;;4968108;28;20073;-54
2021/04/03 03:00:25;;;;;;;20.73;6.68;;;5.30;99.90;;;;;;4972170;28;20041;-53
2021/04/03 03:02:52;;;;;;;18.52;6.30;;;5.20;99.90;;;;;;4943113;28;20073;-54
2021/04/03 03:05:18;;;;;;;17.98;5.47;;;5.20;99.90;;;;;;4960250;28;20023;-54
2021/04/03 03:07:47;;;;;;;24.20;6.55;;;5.30;99.90;;;;;;4971383;28;20428;-53
2021/04/03 03:10:18;;;;;;;25.77;6.80;;;5.30;99.90;;;;;;4971581;28;20035;-54
2021/04/03 03:12:45;;;;;;;19.20;5.85;;;5.30;99.90;;;;;;4970501;28;20038;-53
2021/04/03 03:15:14;;;;;;;17.42;5.78;;;5.30;99.90;;;;;;4969871;28;20058;-55
2021/04/03 03:17:43;;;;;;;14.95;4.65;;;5.30;99.90;;;;;;4962379;28;20529;-55
2021/04/03 03:20:13;;;;;;;20.42;5.03;;;5.20;99.90;;;;;;4969007;28;20031;-54
2021/04/03 03:22:40;;;;;;;21.42;3.35;;;5.30;99.90;;;;;;4971453;28;20516;-54
2021/04/03 03:25:07;;;;;;;17.25;3.60;;;5.30;99.90;;;;;;4971558;28;20034;-52
2021/04/03 03:27:38;;;;;;;11.27;2.97;;;5.20;99.90;;;;;;4971127;28;20030;-54
2021/04/03 03:30:06;;;;;;;19.08;2.92;;;5.20;99.90;;;;;;4971407;28;20038;-54
2021/04/03 03:32:31;;;;;;;13.95;2.80;;;5.20;99.90;;;;;;4971181;28;20026;-56
2021/04/03 03:34:57;;;;;;;17.65;3.08;;;5.10;99.90;;;;;;4971854;28;20110;-56
2021/04/03 03:37:26;;;;;;;17.67;4.40;;;5.10;99.90;;;;;;4962292;28;20030;-56
2021/04/03 03:39:52;;;;;;;15.57;3.28;;;5.10;99.90;;;;;;4961925;28;20027;-56
2021/04/03 03:42:19;;;;;;;11.20;2.65;;;5.10;99.90;;;;;;4957284;28;20027;-57
2021/04/03 03:44:45;;;;;;;15.13;3.50;;;5.10;99.90;;;;;;4946777;29;20058;-57
2021/04/03 03:47:10;;;;;;;21.15;3.03;;;5.10;99.90;;;;;;4961122;28;20484;-53
2021/04/03 03:49:36;;;;;;;23.45;2.95;;;5.10;99.90;;;;;;4971342;28;20157;-57
2021/04/03 03:52:03;;;;;;;16.33;3.13;;;5.10;99.90;;;;;;4968242;28;20030;-57
2021/04/03 03:54:29;;;;;;;18.25;3.03;;;5.10;99.90;;;;;;4966565;28;20126;-55
2021/04/03 03:56:54;;;;;;;21.08;5.65;;;5.10;99.90;;;;;;4960098;28;20058;-59
2021/04/03 03:59:20;;;;;;;11.68;2.70;;;5.10;99.90;;;;;;4965431;28;20043;-55
2021/04/03 04:01:46;;;;;;;14.32;2.72;;;5.10;99.90;;;;;;4970105;28;20027;-56
2021/04/03 04:04:11;;;;;;;19.67;2.65;;;5.10;99.90;;;;;;4954474;28;20051;-55
2021/04/03 04:06:37;;;;;;;11.25;2.53;;;5.10;99.90;;;;;;4970904;28;20447;-57
2021/04/03 04:09:04;;;;;;;12.57;3.00;;;5.00;99.90;;;;;;4971130;28;20039;-54
2021/04/03 04:11:30;;;;;;;18.83;3.45;;;5.00;99.90;;;;;;4970193;28;20053;-55
2021/04/03 04:13:55;;;;;;;22.02;3.92;;;5.10;99.90;;;;;;4971678;28;20027;-57
2021/04/03 04:16:21;;;;;;;14.85;3.20;;;5.00;99.90;;;;;;4971730;28;20029;-58
2021/04/03 04:18:46;;;;;;;18.80;3.80;;;5.00;99.90;;;;;;4970083;28;20023;-55
2021/04/03 04:21:12;;;;;;;18.83;3.20;;;4.90;99.90;;;;;;4970675;28;20026;-54
2021/04/03 04:23:38;;;;;;;16.38;3.05;;;4.90;99.90;;;;;;4968028;28;20437;-56
2021/04/03 04:26:03;;;;;;;21.83;3.08;;;4.90;99.90;;;;;;4970769;28;20034;-57
2021/04/03 04:28:29;;;;;;;12.45;2.85;;;4.90;99.90;;;;;;4961922;28;20106;-55
2021/04/03 04:30:55;;;;;;;20.90;3.63;;;4.90;99.90;;;;;;4970433;28;20477;-58
2021/04/03 04:33:21;;;;;;;11.57;2.70;;;4.90;99.90;;;;;;4965401;28;20106;-57
2021/04/03 04:35:46;;;;;;;18.73;3.03;;;4.90;99.90;;;;;;4968124;28;20096;-57
2021/04/03 04:38:12;;;;;;;17.15;3.25;;;4.90;99.90;;;;;;4970349;28;20492;-54
2021/04/03 04:40:37;;;;;;;19.40;3.00;;;5.00;99.90;;;;;;4981698;28;20038;-57
2021/04/03 04:43:03;;;;;;;11.35;2.35;;;4.90;99.90;;;;;;4977358;28;20031;-59
2021/04/03 04:45:29;;;;;;;13.60;2.75;;;4.90;99.90;;;;;;4972109;28;20400;-57
2021/04/03 04:47:54;;;;;;;17.27;2.88;;;5.00;99.90;;;;;;4964888;28;20038;-54
2021/04/03 04:50:20;;;;;;;10.60;2.40;;;4.90;99.90;;;;;;4967729;28;20034;-57
2021/04/03 04:52:47;;;;;;;18.52;2.83;;;5.00;99.90;;;;;;4962769;28;20035;-58
2021/04/03 04:55:13;;;;;;;20.05;3.38;;;4.90;99.90;;;;;;4955942;28;20073;-53
2021/04/03 04:57:38;;;;;;;18.85;2.83;;;4.90;99.90;;;;;;4963971;28;20027;-57
2021/04/03 05:00:06;;;;;;;14.45;2.53;;;4.90;99.90;;;;;;4970230;28;20039;-57
2021/04/03 05:02:31;;;;;;;9.73;2.55;;;4.90;99.90;;;;;;4963918;28;20125;-54
2021/04/03 05:04:57;;;;;;;15.75;3.97;;;4.90;99.90;;;;;;4958780;28;20075;-56
2021/04/03 05:07:23;;;;;;;14.77;2.75;;;4.90;99.90;;;;;;4969579;28;20043;-57
2021/04/03 05:09:48;;;;;;;14.90;3.25;;;4.90;99.90;;;;;;4970208;28;20421;-56
2021/04/03 05:12:14;;;;;;;12.18;2.17;;;4.90;99.90;;;;;;4968825;28;20027;-53
2021/04/03 05:14:40;;;;;;;15.43;3.05;;;4.90;99.90;;;;;;4970246;28;20038;-55
2021/04/03 05:17:05;;;;;;;11.55;2.17;;;4.90;99.90;;;;;;4967648;28;20030;-57
2021/04/03 05:19:31;;;;;;;17.20;2.10;;;4.90;99.90;;;;;;4962674;28;20027;-59
2021/04/03 05:21:56;;;;;;;18.00;2.45;;;4.90;99.90;;;;;;4967820;28;20585;-55
2021/04/03 05:24:22;;;;;;;11.30;2.40;;;5.00;99.90;;;;;;4969542;28;20476;-58
2021/04/03 05:26:47;;;;;;;12.50;2.25;;;4.90;99.90;;;;;;4969390;28;20113;-59
2021/04/03 05:29:13;;;;;;;12.18;2.55;;;4.90;99.90;;;;;;4970944;28;20039;-53
2021/04/03 05:31:38;;;;;;;13.10;2.28;;;5.00;99.90;;;;;;4972735;28;20027;-56
2021/04/03 05:34:04;;;;;;;18.13;2.50;;;5.00;99.90;;;;;;4974248;28;20141;-55
2021/04/03 05:36:30;;;;;;;17.00;2.40;;;5.10;99.90;;;;;;4967387;28;20556;-53
2021/04/03 05:38:55;;;;;;;12.98;3.00;;;5.10;99.90;;;;;;4966580;28;20027;-55
2021/04/03 05:41:21;;;;;;;26.27;3.35;;;5.10;99.90;;;;;;4972976;28;20121;-58
2021/04/03 05:43:47;;;;;;;16.52;2.47;;;5.20;99.90;;;;;;4972542;28;20039;-57
2021/04/03 05:46:17;;;;;;;20.38;2.55;;;5.30;99.40;;;;;;4972179;28;20034;-56
2021/04/03 05:48:44;;;;;;;12.55;1.77;;;5.30;99.50;;;;;;4970038;28;20042;-54
2021/04/03 05:51:10;;;;;;;15.48;3.28;;;5.40;98.90;;;;;;4969949;28;20440;-56
2021/04/03 05:53:36;;;;;;;11.23;2.00;;;5.50;98.60;;;;;;4970224;28;20035;-54
2021/04/03 05:56:02;;;;;;;13.35;2.33;;;5.60;98.50;;;;;;4971571;28;20031;-56
2021/04/03 05:58:28;;;;;;;21.73;2.83;;;5.60;98.30;;;;;;4966092;28;20033;-55
2021/04/03 06:00:54;;;;;;;16.95;2.90;;;5.80;98.00;;;;;;4964184;28;20114;-55
2021/04/03 06:03:20;;;;;;;15.50;2.22;;;6.00;98.20;;;;;;4972347;28;20019;-55
2021/04/03 06:05:51;;;;;;;12.55;2.55;;;6.20;97.50;;;;;;4973458;28;20035;-57
2021/04/03 06:08:17;;;;;;;14.00;2.33;;;6.60;97.10;;;;;;4963396;28;20074;-56
2021/04/03 06:11:02;;;;;;;12.30;2.55;;;7.00;96.50;;;;;;4973607;28;20062;-57
2021/04/03 06:13:28;;;;;;;17.40;2.50;;;7.50;95.80;;;;;;4970527;28;20638;-56
2021/04/03 06:15:53;;;;;;;12.77;2.30;;;7.90;95.30;;;;;;4973272;28;20093;-56
2021/04/03 06:18:21;;;;;;;12.65;2.60;;;8.20;95.00;;;;;;4971331;28;20034;-57
2021/04/03 06:20:47;;;;;;;14.35;2.95;;;8.70;94.10;;;;;;4972032;28;20460;-57
2021/04/03 06:23:12;;;;;;;19.55;3.53;;;8.90;93.60;;;;;;4968480;28;20019;-55
2021/04/03 06:25:58;;;;;;;14.48;2.33;;;8.70;93.40;;;;;;4972149;28;20463;-58
2021/04/03 06:28:29;;;;;;;20.40;3.15;;;8.30;94.40;;;;;;4968684;28;20031;-58
2021/04/03 06:31:15;;;;;;;18.05;2.65;;;8.00;95.10;;;;;;4972873;28;20023;-55
2021/04/03 06:33:41;;;;;;;17.95;3.35;;;7.60;95.70;;;;;;4960208;28;20118;-56
2021/04/03 06:36:10;;;;;;;24.40;3.25;;;7.60;96.50;;;;;;4964822;28;20134;-57
2021/04/03 06:38:37;;;;;;;11.73;2.28;;;7.90;96.70;;;;;;4971861;28;20046;-55
2021/04/03 06:41:26;;;;;;;23.55;4.18;;;8.50;96.20;;;;;;4972193;28;20027;-56
2021/04/03 06:44:09;;;;;;;25.00;3.85;;;8.60;95.60;;;;;;4965323;28;20404;-59
2021/04/03 06:46:37;;;;;;;16.88;2.97;;;8.80;95.60;;;;;;4967529;28;20408;-56
2021/04/03 06:49:03;;;;;;;15.52;2.90;;;9.40;95.00;;;;;;4971756;28;20041;-58
2021/04/03 06:51:29;;;;;;;18.95;3.28;;;9.70;94.40;;;;;;4963195;28;20019;-58
2021/04/03 06:53:58;;;;;;;16.05;2.85;;;10.50;93.50;;;;;;4965978;28;20030;-57
2021/04/03 06:56:26;;;;;;;13.48;3.45;;;11.30;92.10;;;;;;4970070;28;20029;-56
2021/04/03 06:58:59;;;;;;;20.77;3.65;;;11.90;90.50;;;;;;4972374;28;20393;-59
2021/04/03 07:01:33;;;;;;;15.77;3.95;;;12.70;88.20;;;;;;4969024;28;20023;-59
2021/04/03 07:04:05;;;;;;;18.90;3.47;;;12.50;86.90;;;;;;4964009;28;20062;-56
2021/04/03 07:06:32;;;;;;;15.65;3.65;;;13.20;83.70;;;;;;4963653;28;20513;-57
2021/04/03 07:09:00;;;;;;;17.70;3.60;;;13.00;82.80;;;;;;4976417;28;20373;-60
2021/04/03 07:11:26;;;;;;;16.85;3.75;;;13.10;82.00;;;;;;4977098;28;20173;-58
2021/04/03 07:13:52;;;;;;;16.33;3.85;;;13.30;80.60;;;;;;4962874;28;20038;-53
2021/04/03 07:16:21;;;;;;;24.33;4.25;;;13.00;80.80;;;;;;4962591;28;20033;-55
2021/04/03 07:18:48;;;;;;;24.52;5.07;;;12.90;79.60;;;;;;4962450;28;20026;-55
2021/04/03 07:21:13;;;;;;;16.48;3.60;;;13.60;81.20;;;;;;4973944;28;20675;-57
2021/04/03 07:23:40;;;;;;;15.20;3.90;;;14.30;76.40;;;;;;4969947;28;20078;-57
2021/04/03 07:26:07;;;;;;;15.43;4.90;;;15.00;72.70;;;;;;4971677;28;20089;-57
2021/04/03 07:28:37;;;;;;;14.98;4.40;;;15.30;71.80;;;;;;4971531;28;20030;-57
2021/04/03 07:31:04;;;;;;;22.95;4.82;;;15.60;69.90;;;;;;4970751;28;20500;-55
2021/04/03 07:33:29;;;;;;;18.67;4.47;;;15.90;65.60;;;;;;4966780;28;20113;-57
2021/04/03 07:36:00;;;;;;;13.27;4.50;;;15.10;67.80;;;;;;4967953;28;20446;-56
2021/04/03 07:38:29;;;;;;;18.23;4.20;;;13.50;69.90;;;;;;4963381;28;20058;-57
2021/04/03 07:40:59;;;;;;;20.73;4.05;;;12.40;73.80;;;;;;4968967;28;20106;-55
2021/04/03 07:43:31;;;;;;;13.13;3.60;;;12.70;75.80;;;;;;4966139;28;20487;-56
2021/04/03 07:45:58;;;;;;;13.80;3.33;;;13.50;72.30;;;;;;4970891;28;20512;-59
2021/04/03 07:48:41;;;;;;;13.60;4.13;;;13.80;70.60;;;;;;4965731;28;20057;-57
2021/04/03 07:51:11;;;;;;;11.30;3.27;;;14.20;68.30;;;;;;4970355;28;20085;-55
2021/04/03 07:53:42;;;;;;;18.10;4.40;;;14.70;66.90;;;;;;4966317;28;20047;-57
2021/04/03 07:56:09;;;;;;;16.90;3.70;;;14.80;68.20;;;;;;4941064;28;20641;-56
2021/04/03 07:58:36;;;;;;;16.35;3.28;;;15.30;64.20;;;;;;4966141;28;20547;-56
2021/04/03 08:01:06;;;;;;;13.15;3.47;;;15.40;63.60;;;;;;4970181;28;20056;-58
2021/04/03 08:03:33;;;;;;;13.70;3.90;;;15.60;61.80;;;;;;4968238;28;20126;-56
2021/04/03 08:06:04;;;;;;;13.70;3.50;;;15.30;62.00;;;;;;4968960;28;20038;-58
2021/04/03 08:08:33;;;;;;;20.27;4.63;;;15.70;61.40;;;;;;4962752;28;20155;-55
2021/04/03 08:11:13;;;;;;;17.85;4.45;;;16.00;59.80;;;;;;4969587;28;20042;-58
2021/04/03 08:13:47;;;;;;;17.45;3.90;;;16.00;59.90;;;;;;4970459;28;20721;-56
2021/04/03 08:16:14;;;;;;;15.55;3.15;;;15.80;60.20;;;;;;4970029;28;20031;-57
2021/04/03 08:18:45;;;;;;;15.52;4.90;;;14.90;62.40;;;;;;4968035;28;20472;-56
2021/04/03 08:21:12;;;;;;;15.65;4.28;;;15.40;60.90;;;;;;4969790;28;20088;-55
2021/04/03 08:23:50;;;;;;;13.70;3.55;;;15.10;61.60;;;;;;4969833;28;20033;-58
2021/04/03 08:26:20;;;;;;;11.82;3.75;;;15.20;62.70;;;;;;4969693;28;20114;-58
2021/04/03 08:28:46;;;;;;;14.57;4.60;;;16.00;62.90;;;;;;4969519;28;20061;-57
2021/04/03 08:31:15;;;;;;;11.98;3.85;;;16.70;59.80;;;;;;4968158;28;20085;-56
2021/04/03 08:33:41;;;;;;;11.30;3.65;;;16.40;58.60;;;;;;4967699;28;20097;-58
2021/04/03 08:36:12;;;;;;;14.00;3.40;;;16.70;59.10;;;;;;4970260;28;20031;-59
2021/04/03 08:38:40;;;;;;;22.92;4.60;;;16.80;60.00;;;;;;4966974;28;20023;-55
2021/04/03 08:41:06;;;;;;;17.27;3.92;;;16.60;58.70;;;;;;4970627;28;20051;-55
2021/04/03 08:43:33;;;;;;;15.52;4.35;;;16.30;58.30;;;;;;4966102;28;20515;-60
2021/04/03 08:46:04;;;;;;;15.15;4.72;;;15.40;61.10;;;;;;4968705;28;20106;-56
2021/04/03 08:48:32;;;;;;;16.73;4.60;;;15.60;62.00;;;;;;4964540;28;20031;-57
2021/04/03 08:50:58;;;;;;;21.63;4.68;;;15.70;61.70;;;;;;4970174;28;20034;-54
2021/04/03 08:53:24;;;;;;;15.27;3.90;;;13.90;62.70;;;;;;4964003;28;20031;-56
2021/04/03 08:55:51;;;;;;;22.50;4.88;;;13.70;64.40;;;;;;4970602;28;20035;-55
2021/04/03 08:58:19;;;;;;;21.05;3.42;;;12.80;66.30;;;;;;4961513;28;20103;-55
2021/04/03 09:00:45;;;;;;;18.45;4.07;;;12.20;67.50;;;;;;4957645;28;20392;-56
2021/04/03 09:03:12;;;;;;;17.98;4.38;;;11.30;71.00;;;;;;4962730;28;20097;-54
2021/04/03 09:05:46;;;;;;;19.15;5.30;;;11.10;72.90;;;;;;4973208;28;20027;-54
2021/04/03 09:08:22;;;;;;;22.67;3.90;;;11.00;74.00;;;;;;4963360;28;20035;-55
2021/04/03 09:11:17;;;;;;;18.65;5.10;;;11.40;74.10;;;;;;4973944;28;20436;-56
2021/04/03 09:13:44;;;;;;;13.98;3.88;;;12.30;71.40;;;;;;4948478;28;20034;-58
2021/04/03 09:16:14;;;;;;;16.83;3.80;;;13.30;70.20;;;;;;4969317;28;20023;-57
2021/04/03 09:18:42;;;;;;;12.88;3.72;;;14.00;66.30;;;;;;4960429;28;20107;-54
2021/04/03 09:21:18;;;;;;;13.88;3.85;;;14.20;66.40;;;;;;4964956;28;20031;-57
2021/04/03 09:23:43;;;;;;;23.83;4.45;;;14.70;65.50;;;;;;4964244;28;20034;-55
2021/04/03 09:26:09;;;;;;;12.27;4.30;;;14.80;63.70;;;;;;4973550;28;20037;-57
2021/04/03 09:28:40;;;;;;;19.08;4.45;;;15.00;62.80;;;;;;4974575;28;20018;-56
2021/04/03 09:31:08;;;;;;;12.57;3.88;;;15.70;63.10;;;;;;4977438;28;20066;-58
2021/04/03 09:33:44;;;;;;;22.27;4.55;;;15.80;62.50;;;;;;4985088;28;20023;-60
2021/04/03 09:36:12;;;;;;;22.90;6.00;;;15.40;61.50;;;;;;4971045;28;20401;-57
2021/04/03 09:38:38;;;;;;;18.42;4.95;;;15.80;61.10;;;;;;4972261;28;20051;-57
2021/04/03 09:41:24;;;;;;;18.20;5.28;;;16.50;60.00;;;;;;4973923;28;20072;-58
2021/04/03 09:43:50;;;;;;;14.98;4.68;;;15.50;61.80;;;;;;4970652;28;20138;-58
2021/04/03 09:46:16;;;;;;;17.48;4.25;;;15.30;63.30;;;;;;4963865;28;20500;-58
2021/04/03 09:48:42;;;;;;;17.25;4.80;;;15.50;63.00;;;;;;4971739;28;20026;-56
2021/04/03 09:51:08;;;;;;;18.50;3.85;;;15.80;62.50;;;;;;4967797;28;20031;-54
2021/04/03 09:53:34;;;;;;;12.30;4.20;;;15.60;61.50;;;;;;4967982;28;20026;-58
2021/04/03 09:56:00;;;;;;;14.70;4.22;;;15.70;62.80;;;;;;4973111;28;20391;-57
2021/04/03 09:58:25;;;;;;;10.13;3.83;;;15.90;61.40;;;;;;4968458;28;20082;-55
2021/04/03 10:00:52;;;;;;;12.73;4.10;;;15.40;62.00;;;;;;4973203;28;20019;-55
2021/04/03 10:03:19;;;;;;;15.63;4.65;;;15.20;62.10;;;;;;4967688;28;20615;-55
2021/04/03 10:05:44;;;;;;;18.73;3.53;;;15.00;62.90;;;;;;4973074;28;20031;-57
2021/04/03 10:08:10;;;;;;;18.02;4.63;;;14.70;64.20;;;;;;4969951;28;20065;-58
2021/04/03 10:10:36;;;;;;;19.13;4.65;;;14.20;65.50;;;;;;4955401;28;20038;-55
2021/04/03 10:13:01;;;;;;;15.98;3.83;;;13.90;66.80;;;;;;4972441;28;20069;-55
2021/04/03 10:15:27;;;;;;;16.38;4.05;;;13.60;67.20;;;;;;4971923;28;20058;-55
2021/04/03 10:17:53;;;;;;;20.00;4.30;;;13.80;66.80;;;;;;4961437;28;20042;-56
2021/04/03 10:20:19;;;;;;;17.35;5.18;;;13.70;67.40;;;;;;4964433;28;20026;-57
2021/04/03 10:22:45;;;;;;;19.17;3.47;;;12.90;69.00;;;;;;4967457;28;20035;-58
2021/04/03 10:25:12;;;;;;;19.08;3.10;;;12.90;69.30;;;;;;4972900;28;20038;-58
2021/04/03 10:27:37;;;;;;;17.20;4.13;;;13.00;68.70;;;;;;4969620;28;20042;-56
2021/04/03 10:30:04;;;;;;;14.48;3.75;;;13.00;67.00;;;;;;4972426;28;20034;-57
2021/04/03 10:32:29;;;;;;;14.48;3.30;;;13.00;67.90;;;;;;4970216;28;20037;-59
2021/04/03 10:34:55;;;;;;;14.45;3.08;;;13.00;67.90;;;;;;4972523;28;20109;-56
2021/04/03 10:37:20;;;;;;;10.65;2.63;;;13.00;67.40;;;;;;4960206;28;20042;-57
2021/04/03 10:39:46;;;;;;;14.77;3.75;;;13.00;66.40;;;;;;4963563;28;20452;-55
2021/04/03 10:42:13;;;;;;;19.38;3.55;;;13.00;67.20;;;;;;4970385;28;20400;-58
2021/04/03 10:44:38;;;;;;;14.90;2.80;;;13.30;65.70;;;;;;4971735;28;20023;-56
2021/04/03 10:47:04;;;;;;;10.98;3.05;;;13.20;64.50;;;;;;4970206;28;20034;-59
2021/04/03 10:49:30;;;;;;;12.38;2.85;;;13.40;65.40;;;;;;4972210;28;20026;-57
2021/04/03 10:51:56;;;;;;;10.88;2.85;;;13.70;64.60;;;;;;4969988;28;20515;-58
2021/04/03 10:54:22;;;;;;;9.05;2.80;;;13.70;64.40;;;;;;4969238;28;20878;-57
2021/04/03 10:56:48;;;;;;;10.88;2.10;;;13.70;61.10;;;;;;4968724;28;20462;-54
2021/04/03 10:59:14;;;;;;;7.80;2.20;;;13.60;60.50;;;;;;4972515;28;20037;-55
2021/04/03 11:01:40;;;;;;;13.52;3.08;;;13.50;60.00;;;;;;4969904;28;20417;-55
2021/04/03 11:04:05;;;;;;;16.85;3.50;;;13.60;61.30;;;;;;4971778;28;20136;-55
2021/04/03 11:06:31;;;;;;;9.77;2.67;;;13.70;63.10;;;;;;4969736;28;20084;-57
2021/04/03 11:08:56;;;;;;;10.38;2.90;;;13.80;64.70;;;;;;4970728;28;20149;-54
2021/04/03 11:11:22;;;;;;;8.90;2.67;;;13.90;64.70;;;;;;4969975;28;20018;-52
2021/04/03 11:13:48;;;;;;;7.30;2.08;;;13.60;61.20;;;;;;4970038;28;20540;-58
2021/04/03 11:16:13;;;;;;;6.53;2.15;;;13.40;61.90;;;;;;4966161;28;20121;-57
2021/04/03 11:18:39;;;;;;;10.45;2.88;;;13.30;64.50;;;;;;4971583;28;20026;-57
2021/04/03 11:21:04;;;;;;;12.00;3.38;;;13.40;64.10;;;;;;4969262;28;20567;-59
2021/04/03 11:23:30;;;;;;;9.88;3.15;;;13.60;64.10;;;;;;4970973;28;20085;-56
2021/04/03 11:25:56;;;;;;;7.07;2.17;;;13.80;60.80;;;;;;4971702;28;20655;-54
2021/04/03 11:28:21;;;;;;;7.60;2.33;;;13.70;62.80;;;;;;4970635;28;20023;-57
2021/04/03 11:30:47;;;;;;;8.07;2.95;;;13.70;62.40;;;;;;4970115;28;20045;-56
2021/04/03 11:33:12;;;;;;;10.82;2.53;;;13.20;62.90;;;;;;4963545;28;20039;-55
2021/04/03 11:35:39;;;;;;;10.57;2.70;;;12.90;63.00;;;;;;4964764;28;20037;-59
2021/04/03 11:38:04;;;;;;;5.55;1.90;;;12.70;63.80;;;;;;4971252;28;20113;-53
2021/04/03 11:40:30;;;;;;;14.50;2.72;;;12.70;64.30;;;;;;4971723;28;20023;-55
2021/04/03 11:42:56;;;;;;;13.32;2.90;;;12.70;64.60;;;;;;4970680;28;20030;-56
2021/04/03 11:45:23;;;;;;;10.68;2.78;;;12.90;64.40;;;;;;4971308;28;20038;-53
2021/04/03 11:47:53;;;;;;;8.43;2.53;;;13.20;64.70;;;;;;4965889;28;20031;-58
2021/04/03 11:50:20;;;;;;;7.25;2.50;;;13.20;63.10;;;;;;4959057;28;20031;-59
2021/04/03 11:52:46;;;;;;;9.57;3.00;;;13.10;62.10;;;;;;4971536;28;20020;-57
2021/04/03 11:55:15;;;;;;;8.25;1.98;;;12.60;63.50;;;;;;4973698;28;20035;-55
2021/04/03 11:57:40;;;;;;;9.80;2.90;;;12.60;61.90;;;;;;4969647;28;20594;-56
2021/04/03 12:00:07;;;;;;;8.50;1.75;;;12.40;62.60;;;;;;4971390;28;20125;-55
2021/04/03 12:02:35;;;;;;;9.38;2.20;;;12.60;62.30;;;;;;4963285;28;20027;-56
2021/04/03 12:05:01;;;;;;;6.82;1.58;;;12.80;59.80;;;;;;4965197;28;20134;-54
2021/04/03 12:07:27;;;;;;;5.95;1.52;;;12.90;59.20;;;;;;4970522;28;20077;-57
2021/04/03 12:09:52;;;;;;;3.60;1.95;;;13.30;57.20;;;;;;4967816;28;20030;-54
2021/04/03 12:12:18;;;;;;;6.22;2.92;;;13.40;58.10;;;;;;4971057;28;20065;-55
2021/04/03 12:14:43;;;;;;;8.57;2.20;;;13.60;58.70;;;;;;4971343;28;20038;-55
2021/04/03 12:17:09;;;;;;;5.35;2.65;;;13.80;57.80;;;;;;4969060;28;20026;-58
2021/04/03 12:19:34;;;;;;;9.10;3.22;;;14.00;58.40;;;;;;4969759;28;20037;-58
2021/04/03 12:22:00;;;;;;;9.95;2.80;;;14.10;57.70;;;;;;4967812;28;20114;-57
2021/04/03 12:24:27;;;;;;;7.20;2.80;;;13.70;60.40;;;;;;4969785;28;20443;-59
2021/04/03 12:26:52;;;;;;;6.75;2.13;;;13.40;57.90;;;;;;4969083;28;20057;-57
2021/04/03 12:29:18;;;;;;;11.45;2.55;;;12.70;58.10;;;;;;4969528;28;20556;-56
2021/04/03 12:31:44;;;;;;;4.65;2.20;;;12.50;58.80;;;;;;4968720;28;20670;-57
2021/04/03 12:34:09;;;;;;;6.28;2.22;;;12.50;60.10;;;;;;4970359;28;20039;-55
2021/04/03 12:36:35;;;;;;;10.95;3.30;;;12.50;62.10;;;;;;4969079;28;20054;-55
2021/04/03 12:39:00;;;;;;;10.13;2.70;;;12.80;62.00;;;;;;4970316;28;20034;-56
2021/04/03 12:41:26;;;;;;;6.47;2.72;;;12.60;64.30;;;;;;4969890;28;20547;-57
2021/04/03 12:43:52;;;;;;;7.80;3.08;;;12.90;62.10;;;;;;4969505;28;20030;-54
2021/04/03 12:46:17;;;;;;;10.38;3.03;;;12.80;63.00;;;;;;4968822;28;20039;-56